sensor_id;sensor_type;location;lat;lon;timestamp;pressure;altitude;pressure_sealevel;temperature;humidity
70690;BME280;58267;51.156;17.044;2022-12-28T00:01:44;101138.28;;;6.16;37.21
70690;BME280;58267;51.156;17.044;2022-12-28T00:04:13;101138.68;;;6.44;36.95
70690;BME280;58267;51.156;17.044;2022-12-28T00:06:36;101139.15;;;6.60;37.05
70690;BME280;58267;51.156;17.044;2022-12-28T00:09:01;101139.92;;;5.97;37.47
70690;BME280;58267;51.156;17.044;2022-12-28T00:11:27;101137.18;;;6.21;37.56
70690;BME280;58267;51.156;17.044;2022-12-28T00:13:52;101135.99;;;6.24;37.77
70690;BME280;58267;51.156;17.044;2022-12-28T00:16:23;101132.25;;;5.77;38.08
70690;BME280;58267;51.156;17.044;2022-12-28T00:18:43;101137.14;;;6.15;38.23
70690;BME280;58267;51.156;17.044;2022-12-28T00:21:08;101134.85;;;5.38;38.64
70690;BME280;58267;51.156;17.044;2022-12-28T00:23:33;101136.11;;;5.29;38.71
70690;BME280;58267;51.156;17.044;2022-12-28T00:26:05;101132.74;;;5.26;38.93
70690;BME280;58267;51.156;17.044;2022-12-28T00:28:24;101126.52;;;5.24;38.91
70690;BME280;58267;51.156;17.044;2022-12-28T00:30:49;101131.89;;;5.37;38.80
70690;BME280;58267;51.156;17.044;2022-12-28T00:33:14;101130.30;;;5.53;38.83
70690;BME280;58267;51.156;17.044;2022-12-28T00:35:41;101129.11;;;4.85;39.44
70690;BME280;58267;51.156;17.044;2022-12-28T00:38:06;101122.81;;;5.01;39.24
70690;BME280;58267;51.156;17.044;2022-12-28T00:40:32;101121.65;;;5.19;39.06
70690;BME280;58267;51.156;17.044;2022-12-28T00:42:57;101116.16;;;5.76;38.90
70690;BME280;58267;51.156;17.044;2022-12-28T00:45:23;101115.30;;;5.40;38.74
70690;BME280;58267;51.156;17.044;2022-12-28T00:47:48;101118.11;;;5.15;39.06
70690;BME280;58267;51.156;17.044;2022-12-28T00:50:14;101122.84;;;5.11;39.13
70690;BME280;58267;51.156;17.044;2022-12-28T00:52:40;101121.00;;;5.22;38.94
70690;BME280;58267;51.156;17.044;2022-12-28T00:55:06;101119.25;;;5.20;38.94
70690;BME280;58267;51.156;17.044;2022-12-28T00:57:31;101115.66;;;5.51;38.93
70690;BME280;58267;51.156;17.044;2022-12-28T00:59:57;101113.14;;;5.15;39.09
70690;BME280;58267;51.156;17.044;2022-12-28T01:02:23;101110.96;;;5.35;39.14
70690;BME280;58267;51.156;17.044;2022-12-28T01:04:48;101104.78;;;5.35;39.09
70690;BME280;58267;51.156;17.044;2022-12-28T01:07:13;101100.27;;;5.51;39.17
70690;BME280;58267;51.156;17.044;2022-12-28T01:09:40;101101.18;;;4.93;39.31
70690;BME280;58267;51.156;17.044;2022-12-28T01:12:05;101098.21;;;5.26;39.11
70690;BME280;58267;51.156;17.044;2022-12-28T01:14:31;101094.02;;;5.27;39.15
70690;BME280;58267;51.156;17.044;2022-12-28T01:16:56;101093.40;;;5.29;39.43
70690;BME280;58267;51.156;17.044;2022-12-28T01:19:22;101085.60;;;5.19;39.63
70690;BME280;58267;51.156;17.044;2022-12-28T01:21:49;101082.61;;;4.79;39.47
70690;BME280;58267;51.156;17.044;2022-12-28T01:24:13;101079.13;;;4.93;39.68
70690;BME280;58267;51.156;17.044;2022-12-28T01:26:38;101078.71;;;5.34;39.47
70690;BME280;58267;51.156;17.044;2022-12-28T01:29:03;101073.88;;;5.37;39.72
70690;BME280;58267;51.156;17.044;2022-12-28T01:31:28;101070.89;;;5.01;39.87
70690;BME280;58267;51.156;17.044;2022-12-28T01:33:54;101065.71;;;4.95;40.04
70690;BME280;58267;51.156;17.044;2022-12-28T01:36:20;101068.42;;;5.04;39.93
70690;BME280;58267;51.156;17.044;2022-12-28T01:38:45;101075.28;;;4.84;40.29
70690;BME280;58267;51.156;17.044;2022-12-28T01:41:11;101071.30;;;5.27;40.02
70690;BME280;58267;51.156;17.044;2022-12-28T01:43:41;101070.86;;;4.97;40.12
70690;BME280;58267;51.156;17.044;2022-12-28T01:46:01;101072.50;;;5.05;39.80
70690;BME280;58267;51.156;17.044;2022-12-28T01:48:26;101071.70;;;5.29;39.57
70690;BME280;58267;51.156;17.044;2022-12-28T01:50:52;101065.35;;;5.07;39.96
70690;BME280;58267;51.156;17.044;2022-12-28T01:53:18;101064.53;;;5.09;39.61
70690;BME280;58267;51.156;17.044;2022-12-28T01:55:43;101065.06;;;5.08;39.27
70690;BME280;58267;51.156;17.044;2022-12-28T01:58:11;101063.08;;;5.38;39.49
70690;BME280;58267;51.156;17.044;2022-12-28T02:00:39;101057.12;;;5.32;39.52
70690;BME280;58267;51.156;17.044;2022-12-28T02:03:04;101056.78;;;4.86;39.50
70690;BME280;58267;51.156;17.044;2022-12-28T02:05:30;101055.05;;;5.43;39.49
70690;BME280;58267;51.156;17.044;2022-12-28T02:07:54;101048.79;;;5.13;39.14
70690;BME280;58267;51.156;17.044;2022-12-28T02:10:18;101049.63;;;5.62;39.13
70690;BME280;58267;51.156;17.044;2022-12-28T02:12:44;101040.08;;;5.57;39.18
70690;BME280;58267;51.156;17.044;2022-12-28T02:15:09;101032.15;;;5.42;38.74
70690;BME280;58267;51.156;17.044;2022-12-28T02:17:33;101020.99;;;5.70;38.71
70690;BME280;58267;51.156;17.044;2022-12-28T02:20:00;101015.89;;;5.95;38.72
70690;BME280;58267;51.156;17.044;2022-12-28T02:27:22;101000.63;;;5.47;38.67
70690;BME280;58267;51.156;17.044;2022-12-28T02:29:51;101001.05;;;5.56;38.60
70690;BME280;58267;51.156;17.044;2022-12-28T02:32:16;100995.99;;;5.48;38.69
70690;BME280;58267;51.156;17.044;2022-12-28T02:34:38;100993.76;;;5.83;38.61
70690;BME280;58267;51.156;17.044;2022-12-28T02:37:02;100990.41;;;5.46;38.82
70690;BME280;58267;51.156;17.044;2022-12-28T02:39:30;100986.92;;;5.82;38.69
70690;BME280;58267;51.156;17.044;2022-12-28T02:41:49;100993.85;;;5.92;38.51
70690;BME280;58267;51.156;17.044;2022-12-28T02:44:15;100996.08;;;6.19;38.52
70690;BME280;58267;51.156;17.044;2022-12-28T02:46:40;100995.02;;;5.72;38.43
70690;BME280;58267;51.156;17.044;2022-12-28T02:49:15;100988.00;;;5.63;38.58
70690;BME280;58267;51.156;17.044;2022-12-28T02:51:43;100980.86;;;5.46;38.89
70690;BME280;58267;51.156;17.044;2022-12-28T02:54:08;100975.99;;;5.64;38.69
70690;BME280;58267;51.156;17.044;2022-12-28T02:56:30;100979.97;;;5.63;38.56
70690;BME280;58267;51.156;17.044;2022-12-28T02:58:58;100982.71;;;5.63;38.61
70690;BME280;58267;51.156;17.044;2022-12-28T03:01:18;100969.56;;;5.42;38.96
70690;BME280;58267;51.156;17.044;2022-12-28T03:03:41;100970.37;;;5.29;39.21
70690;BME280;58267;51.156;17.044;2022-12-28T03:06:11;100971.69;;;5.36;39.12
70690;BME280;58267;51.156;17.044;2022-12-28T03:08:35;100967.92;;;5.72;39.31
70690;BME280;58267;51.156;17.044;2022-12-28T03:11:01;100962.43;;;5.13;39.62
70690;BME280;58267;51.156;17.044;2022-12-28T03:13:25;100958.63;;;5.35;39.97
70690;BME280;58267;51.156;17.044;2022-12-28T03:15:46;100961.82;;;5.46;39.64
70690;BME280;58267;51.156;17.044;2022-12-28T03:18:15;100959.80;;;5.46;39.65
70690;BME280;58267;51.156;17.044;2022-12-28T03:20:38;100950.58;;;5.11;39.87
70690;BME280;58267;51.156;17.044;2022-12-28T03:23:05;100943.53;;;5.26;39.79
70690;BME280;58267;51.156;17.044;2022-12-28T03:25:33;100942.61;;;5.46;39.90
70690;BME280;58267;51.156;17.044;2022-12-28T03:27:53;100938.60;;;5.21;40.56
70690;BME280;58267;51.156;17.044;2022-12-28T03:30:19;100932.92;;;5.23;40.34
70690;BME280;58267;51.156;17.044;2022-12-28T03:32:44;100929.15;;;5.08;40.13
70690;BME280;58267;51.156;17.044;2022-12-28T03:35:09;100923.13;;;5.29;40.25
70690;BME280;58267;51.156;17.044;2022-12-28T03:37:40;100924.96;;;5.53;40.07
70690;BME280;58267;51.156;17.044;2022-12-28T03:40:08;100920.88;;;5.90;39.80
70690;BME280;58267;51.156;17.044;2022-12-28T03:42:29;100918.13;;;5.35;39.81
70690;BME280;58267;51.156;17.044;2022-12-28T03:44:59;100919.97;;;6.00;39.36
70690;BME280;58267;51.156;17.044;2022-12-28T03:47:18;100917.62;;;6.02;39.00
70690;BME280;58267;51.156;17.044;2022-12-28T03:49:42;100921.69;;;6.09;39.05
70690;BME280;58267;51.156;17.044;2022-12-28T03:52:09;100919.84;;;5.56;39.42
70690;BME280;58267;51.156;17.044;2022-12-28T03:54:33;100916.74;;;5.73;39.24
70690;BME280;58267;51.156;17.044;2022-12-28T03:57:00;100911.69;;;5.64;39.32
70690;BME280;58267;51.156;17.044;2022-12-28T03:59:25;100909.90;;;5.53;39.41
70690;BME280;58267;51.156;17.044;2022-12-28T04:01:51;100902.65;;;5.31;39.79
70690;BME280;58267;51.156;17.044;2022-12-28T04:04:17;100903.80;;;5.57;39.54
70690;BME280;58267;51.156;17.044;2022-12-28T04:06:42;100905.69;;;5.83;39.51
70690;BME280;58267;51.156;17.044;2022-12-28T04:09:07;100904.41;;;5.62;39.45
70690;BME280;58267;51.156;17.044;2022-12-28T04:11:32;100898.94;;;5.44;39.61
70690;BME280;58267;51.156;17.044;2022-12-28T04:13:58;100894.50;;;5.52;39.93
70690;BME280;58267;51.156;17.044;2022-12-28T04:16:23;100888.71;;;5.44;39.68
70690;BME280;58267;51.156;17.044;2022-12-28T04:18:48;100881.53;;;6.24;39.36
70690;BME280;58267;51.156;17.044;2022-12-28T04:21:15;100876.37;;;5.98;39.05
70690;BME280;58267;51.156;17.044;2022-12-28T04:23:40;100865.44;;;5.94;39.02
70690;BME280;58267;51.156;17.044;2022-12-28T04:26:07;100860.78;;;5.86;39.10
70690;BME280;58267;51.156;17.044;2022-12-28T04:28:31;100861.35;;;5.78;39.24
70690;BME280;58267;51.156;17.044;2022-12-28T04:30:58;100865.92;;;5.67;39.45
70690;BME280;58267;51.156;17.044;2022-12-28T04:33:24;100861.58;;;5.84;39.22
70690;BME280;58267;51.156;17.044;2022-12-28T04:35:48;100858.38;;;5.80;39.25
70690;BME280;58267;51.156;17.044;2022-12-28T04:38:13;100849.05;;;5.80;39.33
70690;BME280;58267;51.156;17.044;2022-12-28T04:40:40;100848.84;;;5.65;39.54
70690;BME280;58267;51.156;17.044;2022-12-28T04:43:05;100844.54;;;5.71;39.49
70690;BME280;58267;51.156;17.044;2022-12-28T04:45:31;100841.32;;;5.87;39.20
70690;BME280;58267;51.156;17.044;2022-12-28T04:47:57;100840.51;;;5.58;39.63
70690;BME280;58267;51.156;17.044;2022-12-28T04:50:21;100839.65;;;5.66;39.52
70690;BME280;58267;51.156;17.044;2022-12-28T04:52:49;100839.44;;;5.73;39.44
70690;BME280;58267;51.156;17.044;2022-12-28T04:55:15;100833.95;;;5.54;39.66
70690;BME280;58267;51.156;17.044;2022-12-28T04:57:42;100832.65;;;5.60;40.33
70690;BME280;58267;51.156;17.044;2022-12-28T05:00:07;100823.96;;;5.24;40.64
70690;BME280;58267;51.156;17.044;2022-12-28T05:02:32;100820.62;;;5.30;40.16
70690;BME280;58267;51.156;17.044;2022-12-28T05:04:57;100819.68;;;5.27;40.14
70690;BME280;58267;51.156;17.044;2022-12-28T05:07:23;100818.79;;;5.29;40.16
70690;BME280;58267;51.156;17.044;2022-12-28T05:09:48;100810.98;;;5.53;40.23
70690;BME280;58267;51.156;17.044;2022-12-28T05:12:15;100806.43;;;5.74;40.17
70690;BME280;58267;51.156;17.044;2022-12-28T05:14:40;100800.47;;;5.30;40.11
70690;BME280;58267;51.156;17.044;2022-12-28T05:17:06;100799.57;;;5.69;40.00
70690;BME280;58267;51.156;17.044;2022-12-28T05:19:32;100794.59;;;5.58;39.80
70690;BME280;58267;51.156;17.044;2022-12-28T05:21:57;100790.43;;;5.75;39.54
70690;BME280;58267;51.156;17.044;2022-12-28T05:24:23;100782.26;;;5.85;39.43
70690;BME280;58267;51.156;17.044;2022-12-28T05:26:49;100782.34;;;5.91;39.35
70690;BME280;58267;51.156;17.044;2022-12-28T05:29:14;100782.90;;;6.05;39.27
70690;BME280;58267;51.156;17.044;2022-12-28T05:31:39;100779.54;;;6.04;39.16
70690;BME280;58267;51.156;17.044;2022-12-28T05:34:05;100775.31;;;6.14;39.05
70690;BME280;58267;51.156;17.044;2022-12-28T05:36:30;100773.42;;;6.13;39.01
70690;BME280;58267;51.156;17.044;2022-12-28T05:38:56;100774.49;;;5.81;39.20
70690;BME280;58267;51.156;17.044;2022-12-28T05:41:23;100773.00;;;6.01;39.23
70690;BME280;58267;51.156;17.044;2022-12-28T05:43:47;100769.22;;;6.14;39.09
70690;BME280;58267;51.156;17.044;2022-12-28T05:46:14;100769.07;;;6.09;39.15
70690;BME280;58267;51.156;17.044;2022-12-28T05:48:40;100765.12;;;5.98;39.28
70690;BME280;58267;51.156;17.044;2022-12-28T05:51:06;100762.82;;;5.87;39.47
70690;BME280;58267;51.156;17.044;2022-12-28T05:53:30;100767.03;;;5.95;39.36
70690;BME280;58267;51.156;17.044;2022-12-28T05:56:00;100763.63;;;5.83;39.55
70690;BME280;58267;51.156;17.044;2022-12-28T05:58:21;100765.59;;;5.81;39.58
70690;BME280;58267;51.156;17.044;2022-12-28T06:00:46;100761.74;;;5.70;39.74
70690;BME280;58267;51.156;17.044;2022-12-28T06:03:11;100755.57;;;6.10;39.84
70690;BME280;58267;51.156;17.044;2022-12-28T06:05:37;100750.55;;;5.66;39.83
70690;BME280;58267;51.156;17.044;2022-12-28T06:08:03;100752.94;;;5.58;39.90
70690;BME280;58267;51.156;17.044;2022-12-28T06:10:28;100753.25;;;5.49;40.40
70690;BME280;58267;51.156;17.044;2022-12-28T06:12:54;100741.42;;;5.45;40.11
70690;BME280;58267;51.156;17.044;2022-12-28T06:15:19;100744.12;;;5.63;39.84
70690;BME280;58267;51.156;17.044;2022-12-28T06:17:44;100745.61;;;5.66;39.86
70690;BME280;58267;51.156;17.044;2022-12-28T06:20:10;100754.56;;;5.82;39.53
70690;BME280;58267;51.156;17.044;2022-12-28T06:22:36;100757.80;;;5.79;39.52
70690;BME280;58267;51.156;17.044;2022-12-28T06:25:01;100756.34;;;5.63;40.05
70690;BME280;58267;51.156;17.044;2022-12-28T06:27:26;100746.66;;;5.70;39.95
70690;BME280;58267;51.156;17.044;2022-12-28T06:29:52;100751.45;;;5.36;39.90
70690;BME280;58267;51.156;17.044;2022-12-28T06:32:18;100755.48;;;5.00;40.53
70690;BME280;58267;51.156;17.044;2022-12-28T06:34:43;100755.87;;;5.62;40.35
70690;BME280;58267;51.156;17.044;2022-12-28T06:37:09;100758.70;;;5.36;40.47
70690;BME280;58267;51.156;17.044;2022-12-28T06:39:35;100762.64;;;5.33;39.98
70690;BME280;58267;51.156;17.044;2022-12-28T06:42:00;100756.75;;;5.79;39.79
70690;BME280;58267;51.156;17.044;2022-12-28T06:44:26;100756.99;;;5.75;39.74
70690;BME280;58267;51.156;17.044;2022-12-28T06:46:52;100760.67;;;5.65;39.54
70690;BME280;58267;51.156;17.044;2022-12-28T06:49:17;100756.19;;;5.59;39.47
70690;BME280;58267;51.156;17.044;2022-12-28T06:51:43;100755.87;;;6.05;39.47
70690;BME280;58267;51.156;17.044;2022-12-28T06:54:09;100753.19;;;5.55;39.57
70690;BME280;58267;51.156;17.044;2022-12-28T06:56:34;100753.65;;;5.75;39.21
70690;BME280;58267;51.156;17.044;2022-12-28T06:59:00;100750.34;;;5.89;39.33
70690;BME280;58267;51.156;17.044;2022-12-28T07:01:28;100744.52;;;5.45;39.52
70690;BME280;58267;51.156;17.044;2022-12-28T07:03:52;100742.51;;;5.90;39.48
70690;BME280;58267;51.156;17.044;2022-12-28T07:06:19;100737.30;;;5.52;39.43
70690;BME280;58267;51.156;17.044;2022-12-28T07:08:43;100738.00;;;5.50;39.35
70690;BME280;58267;51.156;17.044;2022-12-28T07:11:10;100739.93;;;5.18;39.68
70690;BME280;58267;51.156;17.044;2022-12-28T07:13:35;100731.62;;;5.37;39.68
70690;BME280;58267;51.156;17.044;2022-12-28T07:16:02;100732.79;;;5.39;39.57
70690;BME280;58267;51.156;17.044;2022-12-28T07:18:25;100737.00;;;5.62;39.38
70690;BME280;58267;51.156;17.044;2022-12-28T07:20:50;100734.53;;;5.93;38.99
70690;BME280;58267;51.156;17.044;2022-12-28T07:23:16;100734.22;;;5.92;38.79
70690;BME280;58267;51.156;17.044;2022-12-28T07:25:42;100733.14;;;5.86;39.07
70690;BME280;58267;51.156;17.044;2022-12-28T07:28:08;100727.90;;;6.04;38.81
70690;BME280;58267;51.156;17.044;2022-12-28T07:30:33;100726.88;;;6.33;38.49
70690;BME280;58267;51.156;17.044;2022-12-28T07:32:58;100722.70;;;6.42;38.17
70690;BME280;58267;51.156;17.044;2022-12-28T07:35:24;100720.24;;;6.37;38.25
70690;BME280;58267;51.156;17.044;2022-12-28T07:37:50;100712.95;;;6.27;38.43
70690;BME280;58267;51.156;17.044;2022-12-28T07:40:15;100714.85;;;6.08;38.38
70690;BME280;58267;51.156;17.044;2022-12-28T07:42:41;100713.26;;;6.15;38.65
70690;BME280;58267;51.156;17.044;2022-12-28T07:45:07;100709.08;;;6.39;38.42
70690;BME280;58267;51.156;17.044;2022-12-28T07:47:32;100712.02;;;6.31;38.37
70690;BME280;58267;51.156;17.044;2022-12-28T07:49:58;100715.55;;;6.26;38.54
70690;BME280;58267;51.156;17.044;2022-12-28T07:52:23;100721.21;;;5.92;39.05
70690;BME280;58267;51.156;17.044;2022-12-28T07:54:48;100717.83;;;5.77;39.28
70690;BME280;58267;51.156;17.044;2022-12-28T07:57:13;100719.17;;;5.87;39.20
70690;BME280;58267;51.156;17.044;2022-12-28T07:59:38;100721.20;;;5.71;39.31
70690;BME280;58267;51.156;17.044;2022-12-28T08:02:04;100722.57;;;5.95;39.25
70690;BME280;58267;51.156;17.044;2022-12-28T08:04:30;100724.80;;;5.87;39.21
70690;BME280;58267;51.156;17.044;2022-12-28T08:06:55;100729.79;;;6.02;39.19
70690;BME280;58267;51.156;17.044;2022-12-28T08:09:20;100724.02;;;6.18;38.84
70690;BME280;58267;51.156;17.044;2022-12-28T08:11:48;100726.51;;;6.17;38.82
70690;BME280;58267;51.156;17.044;2022-12-28T08:14:11;100740.68;;;5.87;39.32
70690;BME280;58267;51.156;17.044;2022-12-28T08:16:38;100744.82;;;5.48;39.74
70690;BME280;58267;51.156;17.044;2022-12-28T08:19:02;100744.11;;;5.96;39.26
70690;BME280;58267;51.156;17.044;2022-12-28T08:21:30;100746.18;;;6.18;38.94
70690;BME280;58267;51.156;17.044;2022-12-28T08:23:53;100740.25;;;6.32;38.70
70690;BME280;58267;51.156;17.044;2022-12-28T08:26:20;100735.63;;;6.57;38.46
70690;BME280;58267;51.156;17.044;2022-12-28T08:28:47;100728.02;;;6.79;37.88
70690;BME280;58267;51.156;17.044;2022-12-28T08:31:12;100719.23;;;7.08;37.47
70690;BME280;58267;51.156;17.044;2022-12-28T08:33:36;100715.60;;;6.90;37.34
70690;BME280;58267;51.156;17.044;2022-12-28T08:36:01;100714.12;;;7.09;37.22
70690;BME280;58267;51.156;17.044;2022-12-28T08:38:27;100709.17;;;7.36;36.92
70690;BME280;58267;51.156;17.044;2022-12-28T08:40:54;100707.18;;;7.56;36.66
70690;BME280;58267;51.156;17.044;2022-12-28T08:43:18;100708.35;;;7.45;36.49
70690;BME280;58267;51.156;17.044;2022-12-28T08:45:43;100708.84;;;7.41;36.54
70690;BME280;58267;51.156;17.044;2022-12-28T08:48:09;100704.25;;;7.65;36.19
70690;BME280;58267;51.156;17.044;2022-12-28T08:50:34;100700.92;;;7.40;36.27
70690;BME280;58267;51.156;17.044;2022-12-28T08:53:01;100693.86;;;7.55;36.32
70690;BME280;58267;51.156;17.044;2022-12-28T08:55:26;100687.13;;;7.86;36.42
70690;BME280;58267;51.156;17.044;2022-12-28T08:57:52;100691.74;;;7.55;36.39
70690;BME280;58267;51.156;17.044;2022-12-28T09:00:19;100695.99;;;7.66;36.48
70690;BME280;58267;51.156;17.044;2022-12-28T09:02:44;100694.22;;;7.32;36.57
70690;BME280;58267;51.156;17.044;2022-12-28T09:05:09;100693.80;;;7.49;36.67
70690;BME280;58267;51.156;17.044;2022-12-28T09:07:35;100687.88;;;7.57;36.49
70690;BME280;58267;51.156;17.044;2022-12-28T09:10:00;100689.58;;;7.39;36.55
70690;BME280;58267;51.156;17.044;2022-12-28T09:12:25;100685.71;;;7.56;36.53
70690;BME280;58267;51.156;17.044;2022-12-28T09:14:51;100687.02;;;7.59;36.47
70690;BME280;58267;51.156;17.044;2022-12-28T09:17:16;100689.62;;;7.63;36.50
70690;BME280;58267;51.156;17.044;2022-12-28T09:19:41;100681.46;;;7.47;36.32
70690;BME280;58267;51.156;17.044;2022-12-28T09:22:06;100672.43;;;7.86;36.07
70690;BME280;58267;51.156;17.044;2022-12-28T09:24:32;100666.07;;;7.59;36.11
70690;BME280;58267;51.156;17.044;2022-12-28T09:26:58;100657.36;;;7.32;36.39
70690;BME280;58267;51.156;17.044;2022-12-28T09:29:24;100652.79;;;7.49;36.53
70690;BME280;58267;51.156;17.044;2022-12-28T09:31:50;100647.08;;;7.40;36.53
70690;BME280;58267;51.156;17.044;2022-12-28T09:34:15;100644.77;;;7.77;36.35
70690;BME280;58267;51.156;17.044;2022-12-28T09:36:42;100638.29;;;7.71;36.24
70690;BME280;58267;51.156;17.044;2022-12-28T09:39:07;100638.15;;;7.31;36.56
70690;BME280;58267;51.156;17.044;2022-12-28T09:41:34;100632.07;;;7.32;36.83
70690;BME280;58267;51.156;17.044;2022-12-28T09:44:07;100627.41;;;7.12;36.76
70690;BME280;58267;51.156;17.044;2022-12-28T09:46:23;100629.95;;;6.98;36.36
70690;BME280;58267;51.156;17.044;2022-12-28T09:48:52;100630.23;;;7.12;36.66
70690;BME280;58267;51.156;17.044;2022-12-28T09:51:13;100618.96;;;7.12;36.85
70690;BME280;58267;51.156;17.044;2022-12-28T09:53:39;100618.11;;;6.78;36.93
70690;BME280;58267;51.156;17.044;2022-12-28T09:56:15;100615.40;;;6.66;37.46
70690;BME280;58267;51.156;17.044;2022-12-28T09:58:33;100600.99;;;6.58;37.35
70690;BME280;58267;51.156;17.044;2022-12-28T10:00:57;100604.75;;;6.44;37.64
70690;BME280;58267;51.156;17.044;2022-12-28T10:03:23;100596.65;;;6.83;37.07
70690;BME280;58267;51.156;17.044;2022-12-28T10:05:48;100594.45;;;6.98;36.71
70690;BME280;58267;51.156;17.044;2022-12-28T10:08:15;100591.79;;;7.43;36.42
70690;BME280;58267;51.156;17.044;2022-12-28T10:10:38;100590.63;;;7.11;36.45
70690;BME280;58267;51.156;17.044;2022-12-28T10:13:12;100584.58;;;7.34;36.36
70690;BME280;58267;51.156;17.044;2022-12-28T10:15:28;100587.41;;;7.55;35.72
70690;BME280;58267;51.156;17.044;2022-12-28T10:17:54;100581.56;;;7.69;35.79
70690;BME280;58267;51.156;17.044;2022-12-28T10:20:20;100575.73;;;7.88;35.66
70690;BME280;58267;51.156;17.044;2022-12-28T10:22:48;100572.90;;;7.62;35.28
70690;BME280;58267;51.156;17.044;2022-12-28T10:25:13;100579.16;;;8.28;34.98
70690;BME280;58267;51.156;17.044;2022-12-28T10:27:35;100577.12;;;8.25;34.79
70690;BME280;58267;51.156;17.044;2022-12-28T10:30:05;100572.42;;;7.95;34.87
70690;BME280;58267;51.156;17.044;2022-12-28T10:32:25;100573.04;;;8.20;35.22
70690;BME280;58267;51.156;17.044;2022-12-28T10:34:55;100576.20;;;8.13;35.28
70690;BME280;58267;51.156;17.044;2022-12-28T10:37:17;100574.07;;;8.16;34.82
70690;BME280;58267;51.156;17.044;2022-12-28T10:39:47;100568.07;;;8.12;34.67
70690;BME280;58267;51.156;17.044;2022-12-28T10:42:18;100558.01;;;8.34;35.00
70690;BME280;58267;51.156;17.044;2022-12-28T10:44:33;100558.25;;;8.40;34.96
70690;BME280;58267;51.156;17.044;2022-12-28T10:46:59;100556.13;;;8.14;34.76
70690;BME280;58267;51.156;17.044;2022-12-28T10:49:24;100550.71;;;8.24;34.93
70690;BME280;58267;51.156;17.044;2022-12-28T10:54:22;100540.93;;;8.33;34.55
70690;BME280;58267;51.156;17.044;2022-12-28T10:56:47;100536.28;;;8.62;34.51
70690;BME280;58267;51.156;17.044;2022-12-28T11:01:30;100523.01;;;8.46;34.39
70690;BME280;58267;51.156;17.044;2022-12-28T11:04:02;100516.03;;;8.74;34.21
70690;BME280;58267;51.156;17.044;2022-12-28T11:06:23;100513.72;;;8.30;34.63
70690;BME280;58267;51.156;17.044;2022-12-28T11:11:19;100514.67;;;8.28;34.48
70690;BME280;58267;51.156;17.044;2022-12-28T11:13:38;100512.36;;;8.31;34.75
70690;BME280;58267;51.156;17.044;2022-12-28T11:16:02;100499.07;;;8.53;34.46
70690;BME280;58267;51.156;17.044;2022-12-28T11:18:28;100494.41;;;8.29;34.58
70690;BME280;58267;51.156;17.044;2022-12-28T11:20:53;100498.51;;;8.26;34.95
70690;BME280;58267;51.156;17.044;2022-12-28T11:23:20;100480.80;;;8.41;34.74
70690;BME280;58267;51.156;17.044;2022-12-28T11:25:44;100480.44;;;8.23;34.84
70690;BME280;58267;51.156;17.044;2022-12-28T11:28:13;100468.74;;;8.15;35.28
70690;BME280;58267;51.156;17.044;2022-12-28T11:30:34;100458.03;;;8.35;34.89
70690;BME280;58267;51.156;17.044;2022-12-28T11:33:01;100463.54;;;8.57;34.97
70690;BME280;58267;51.156;17.044;2022-12-28T11:35:28;100458.15;;;8.24;34.89
70690;BME280;58267;51.156;17.044;2022-12-28T11:37:52;100455.87;;;8.36;34.76
70690;BME280;58267;51.156;17.044;2022-12-28T11:42:51;100434.74;;;8.88;34.37
70690;BME280;58267;51.156;17.044;2022-12-28T11:45:12;100433.36;;;8.82;34.62
70690;BME280;58267;51.156;17.044;2022-12-28T11:47:33;100425.48;;;8.80;34.88
70690;BME280;58267;51.156;17.044;2022-12-28T11:54:52;100406.14;;;9.07;34.57
70690;BME280;58267;51.156;17.044;2022-12-28T11:59:39;100391.52;;;8.69;34.68
70690;BME280;58267;51.156;17.044;2022-12-28T12:04:34;100396.74;;;8.88;34.42
70690;BME280;58267;51.156;17.044;2022-12-28T12:09:25;100380.01;;;8.73;35.10
70690;BME280;58267;51.156;17.044;2022-12-28T12:11:47;100382.53;;;8.60;35.15
70690;BME280;58267;51.156;17.044;2022-12-28T12:14:12;100373.66;;;7.89;35.93
70690;BME280;58267;51.156;17.044;2022-12-28T12:16:46;100371.42;;;7.67;36.33
70690;BME280;58267;51.156;17.044;2022-12-28T12:19:04;100364.35;;;7.87;36.39
70690;BME280;58267;51.156;17.044;2022-12-28T12:21:36;100366.47;;;7.87;36.46
70690;BME280;58267;51.156;17.044;2022-12-28T12:23:59;100357.55;;;7.66;36.78
70690;BME280;58267;51.156;17.044;2022-12-28T12:26:23;100355.66;;;7.84;36.67
70690;BME280;58267;51.156;17.044;2022-12-28T12:28:46;100356.32;;;7.93;36.58
70690;BME280;58267;51.156;17.044;2022-12-28T12:31:14;100358.43;;;8.45;36.25
70690;BME280;58267;51.156;17.044;2022-12-28T12:33:36;100355.83;;;8.19;36.76
70690;BME280;58267;51.156;17.044;2022-12-28T12:36:08;100351.47;;;8.14;36.60
70690;BME280;58267;51.156;17.044;2022-12-28T12:38:36;100352.72;;;8.11;36.63
70690;BME280;58267;51.156;17.044;2022-12-28T12:43:26;100345.72;;;8.03;36.86
70690;BME280;58267;51.156;17.044;2022-12-28T12:45:50;100346.93;;;8.05;36.76
70690;BME280;58267;51.156;17.044;2022-12-28T12:48:18;100340.23;;;8.60;36.27
70690;BME280;58267;51.156;17.044;2022-12-28T12:50:47;100343.33;;;8.16;36.79
70690;BME280;58267;51.156;17.044;2022-12-28T12:53:04;100341.00;;;8.49;36.57
70690;BME280;58267;51.156;17.044;2022-12-28T12:57:55;100333.76;;;8.26;37.06
70690;BME280;58267;51.156;17.044;2022-12-28T13:00:15;100322.98;;;8.01;36.89
70690;BME280;58267;51.156;17.044;2022-12-28T13:02:53;100324.66;;;7.79;37.45
70690;BME280;58267;51.156;17.044;2022-12-28T13:05:04;100318.87;;;7.47;37.94
70690;BME280;58267;51.156;17.044;2022-12-28T13:07:29;100312.46;;;7.43;38.52
70690;BME280;58267;51.156;17.044;2022-12-28T13:09:57;100318.53;;;7.54;38.08
70690;BME280;58267;51.156;17.044;2022-12-28T13:12:20;100317.75;;;8.04;37.47